Coconut Island, Australia
Current Conditions -  °F | °C
As of 6:30 PM on Friday 28 Nov 2014 (Local Time) from YHID Reporting Station
Clear Clear  
Wind Chill: 82°   Ceiling: Unl
Heat Index: 87°   Visibility: 6mi
Dew Point: 72°   Wind: 13mph
Humidity: 70%   Direction: 100°E
Pressure: 29.77"   Gusts: NA
Location:  10.05°S, 143.07°E
Report Text: YHID 280830Z AUTO 10011KT 9999 // NCD 28/22 Q1008
Loading
Personal Weather Stations






























Interactive Weather Map New forecast layout! Learn more

10-Day Weather Forecast

Advertisements
Track Severe Weather on mobile